地図

経路データ

SID SEASON NUMBER BASIN SUBBASIN NAME ISO_TIME NATURE LAT LON WMO_WIND WMO_PRES WMO_AGENCY TRACK_TYPE DIST2LAND LANDFALL IFLAG USA_AGENCY USA_ATCF_ID USA_LAT USA_LON USA_RECORD USA_STATUS USA_WIND USA_PRES USA_SSHS USA_R34_NE USA_R34_SE USA_R34_SW USA_R34_NW USA_R50_NE USA_R50_SE USA_R50_SW USA_R50_NW USA_R64_NE USA_R64_SE USA_R64_SW USA_R64_NW USA_POCI USA_ROCI USA_RMW USA_EYE TOKYO_LAT TOKYO_LON TOKYO_GRADE TOKYO_WIND TOKYO_PRES TOKYO_R50_DIR TOKYO_R50_LONG TOKYO_R50_SHORT TOKYO_R30_DIR TOKYO_R30_LONG TOKYO_R30_SHORT TOKYO_LAND CMA_LAT CMA_LON CMA_CAT CMA_WIND CMA_PRES HKO_LAT HKO_LON HKO_CAT HKO_WIND HKO_PRES NEWDELHI_LAT NEWDELHI_LON NEWDELHI_GRADE NEWDELHI_WIND NEWDELHI_PRES NEWDELHI_CI NEWDELHI_DP NEWDELHI_POCI REUNION_LAT REUNION_LON REUNION_TYPE REUNION_WIND REUNION_PRES REUNION_TNUM REUNION_CI REUNION_RMW REUNION_R34_NE REUNION_R34_SE REUNION_R34_SW REUNION_R34_NW REUNION_R50_NE REUNION_R50_SE REUNION_R50_SW REUNION_R50_NW REUNION_R64_NE REUNION_R64_SE REUNION_R64_SW REUNION_R64_NW BOM_LAT BOM_LON BOM_TYPE BOM_WIND BOM_PRES BOM_TNUM BOM_CI BOM_RMW BOM_R34_NE BOM_R34_SE BOM_R34_SW BOM_R34_NW BOM_R50_NE BOM_R50_SE BOM_R50_SW BOM_R50_NW BOM_R64_NE BOM_R64_SE BOM_R64_SW BOM_R64_NW BOM_ROCI BOM_POCI BOM_EYE BOM_POS_METHOD BOM_PRES_METHOD NADI_LAT NADI_LON NADI_CAT NADI_WIND NADI_PRES WELLINGTON_LAT WELLINGTON_LON WELLINGTON_WIND WELLINGTON_PRES DS824_LAT DS824_LON DS824_STAGE DS824_WIND DS824_PRES TD9636_LAT TD9636_LON TD9636_STAGE TD9636_WIND TD9636_PRES TD9635_LAT TD9635_LON TD9635_WIND TD9635_PRES TD9635_ROCI NEUMANN_LAT NEUMANN_LON NEUMANN_CLASS NEUMANN_WIND NEUMANN_PRES MLC_LAT MLC_LON MLC_CLASS MLC_WIND MLC_PRES USA_GUST BOM_GUST BOM_GUST_PER REUNION_GUST REUNION_GUST_PER USA_SEAHGT USA_SEARAD_NE USA_SEARAD_SE USA_SEARAD_SW USA_SEARAD_NW STORM_SPEED STORM_DIR
1931223N14299 1931 25 NA CS NOT_NAMED 1931-08-10 18:00:00 TS 13.5000 -61.0000 30 hurdat_atl main 313 313 O_____________ hurdat_atl AL031931 13.5000 -61.0000 TD 30 -1 22 299
1931223N14299 1931 25 NA CS NOT_NAMED 1931-08-10 21:00:00 TS 14.0258 -61.9616 main 370 370 P_____________ AL031931 14.0258 -61.9616 TD 30 -1 21 298
1931223N14299 1931 25 NA CS NOT_NAMED 1931-08-11 00:00:00 TS 14.5000 -62.9000 30 hurdat_atl main 425 412 O_____________ hurdat_atl AL031931 14.5000 -62.9000 TD 30 -1 20 296
1931223N14299 1931 25 NA CS NOT_NAMED 1931-08-11 03:00:00 TS 14.8872 -63.7878 main 407 338 P_____________ AL031931 14.8872 -63.7878 TD 32 -1 18 293
1931223N14299 1931 25 NA CS NOT_NAMED 1931-08-11 06:00:00 TS 15.2000 -64.6000 35 hurdat_atl main 338 284 O_____________ hurdat_atl AL031931 15.2000 -64.6000 TS 35 0 16 292
1931223N14299 1931 25 NA CS NOT_NAMED 1931-08-11 09:00:00 TS 15.4797 -65.3377 main 284 247 P_____________ AL031931 15.4797 -65.3377 TS 37 0 14 290
1931223N14299 1931 25 NA CS NOT_NAMED 1931-08-11 12:00:00 TS 15.7000 -66.0000 40 hurdat_atl main 247 226 O_____________ hurdat_atl AL031931 15.7000 -66.0000 TS 40 0 13 288
1931223N14299 1931 25 NA CS NOT_NAMED 1931-08-11 15:00:00 TS 15.8871 -66.6076 main 226 212 P_____________ AL031931 15.8871 -66.6076 TS 40 0 12 285
1931223N14299 1931 25 NA CS NOT_NAMED 1931-08-11 18:00:00 TS 16.0000 -67.2000 40 hurdat_atl main 212 212 O_____________ hurdat_atl AL031931 16.0000 -67.2000 TS 40 0 12 276
1931223N14299 1931 25 NA CS NOT_NAMED 1931-08-11 21:00:00 TS 16.0224 -67.8427 main 222 222 P_____________ AL031931 16.0224 -67.8427 TS 42 0 13 270
1931223N14299 1931 25 NA CS NOT_NAMED 1931-08-12 00:00:00 TS 16.0000 -68.5000 45 hurdat_atl main 246 246 O_____________ hurdat_atl AL031931 16.0000 -68.5000 TS 45 0 13 269
1931223N14299 1931 25 NA CS NOT_NAMED 1931-08-12 03:00:00 TS 15.9999 -69.1575 main 249 247 P_____________ AL031931 15.9999 -69.1575 TS 45 0 13 270
1931223N14299 1931 25 NA CS NOT_NAMED 1931-08-12 06:00:00 TS 16.0000 -69.8000 45 hurdat_atl main 247 208 O_____________ hurdat_atl AL031931 16.0000 -69.8000 TS 45 0 12 270
1931223N14299 1931 25 NA CS NOT_NAMED 1931-08-12 09:00:00 TS 15.9998 -70.4150 main 208 184 P_____________ AL031931 15.9998 -70.4150 TS 45 0 12 270
1931223N14299 1931 25 NA CS NOT_NAMED 1931-08-12 12:00:00 TS 16.0000 -71.0000 45 hurdat_atl main 184 179 O_____________ hurdat_atl AL031931 16.0000 -71.0000 TS 45 0 11 270
1931223N14299 1931 25 NA CS NOT_NAMED 1931-08-12 15:00:00 TS 15.9998 -71.5575 main 180 180 P_____________ AL031931 15.9998 -71.5575 TS 47 0 11 270
1931223N14299 1931 25 NA CS NOT_NAMED 1931-08-12 18:00:00 TS 16.0000 -72.1000 50 hurdat_atl main 193 193 O_____________ hurdat_atl AL031931 16.0000 -72.1000 TS 50 0 11 270
1931223N14299 1931 25 NA CS NOT_NAMED 1931-08-12 21:00:00 TS 15.9999 -72.6500 main 219 219 P_____________ AL031931 15.9999 -72.6500 TS 50 0 11 270
1931223N14299 1931 25 NA CS NOT_NAMED 1931-08-13 00:00:00 TS 16.0000 -73.2000 50 hurdat_atl main 232 224 O_____________ hurdat_atl AL031931 16.0000 -73.2000 TS 50 0 11 270
1931223N14299 1931 25 NA CS NOT_NAMED 1931-08-13 03:00:00 TS 15.9998 -73.7425 main 224 223 P_____________ AL031931 15.9998 -73.7425 TS 50 0 11 270
1931223N14299 1931 25 NA CS NOT_NAMED 1931-08-13 06:00:00 TS 16.0000 -74.3000 50 hurdat_atl main 227 227 O_____________ hurdat_atl AL031931 16.0000 -74.3000 TS 50 0 11 270
1931223N14299 1931 25 NA CS NOT_NAMED 1931-08-13 09:00:00 TS 15.9998 -74.8850 main 247 225 P_____________ AL031931 15.9998 -74.8850 TS 50 0 12 270
1931223N14299 1931 25 NA CS NOT_NAMED 1931-08-13 12:00:00 TS 16.0000 -75.5000 50 hurdat_atl main 225 212 O_____________ hurdat_atl AL031931 16.0000 -75.5000 TS 50 0 12 270
1931223N14299 1931 25 NA CS NOT_NAMED 1931-08-13 15:00:00 TS 15.9922 -76.1276 main 212 194 P_____________ AL031931 15.9922 -76.1276 TS 50 0 13 270
1931223N14299 1931 25 NA CS NOT_NAMED 1931-08-13 18:00:00 TS 16.0000 -76.8000 50 hurdat_atl main 194 190 O_____________ hurdat_atl AL031931 16.0000 -76.8000 TS 50 0 14 272
1931223N14299 1931 25 NA CS NOT_NAMED 1931-08-13 21:00:00 TS 16.0424 -77.5350 main 192 186 P_____________ AL031931 16.0424 -77.5350 TS 50 0 14 274
1931223N14299 1931 25 NA CS NOT_NAMED 1931-08-14 00:00:00 TS 16.1000 -78.3000 50 hurdat_atl main 211 211 O_____________ hurdat_atl AL031931 16.1000 -78.3000 TS 50 0 15 274
1931223N14299 1931 25 NA CS NOT_NAMED 1931-08-14 03:00:00 TS 16.1497 -79.0500 main 246 235 P_____________ AL031931 16.1497 -79.0500 TS 50 0 14 274
1931223N14299 1931 25 NA CS NOT_NAMED 1931-08-14 06:00:00 TS 16.2000 -79.8000 50 hurdat_atl main 268 268 O_____________ hurdat_atl AL031931 16.2000 -79.8000 TS 50 0 14 274
1931223N14299 1931 25 NA CS NOT_NAMED 1931-08-14 09:00:00 TS 16.2497 -80.5500 main 299 241 P_____________ AL031931 16.2497 -80.5500 TS 50 0 14 274
1931223N14299 1931 25 NA CS NOT_NAMED 1931-08-14 12:00:00 TS 16.3000 -81.3000 50 hurdat_atl main 241 187 O_____________ hurdat_atl AL031931 16.3000 -81.3000 TS 50 0 14 274
1931223N14299 1931 25 NA CS NOT_NAMED 1931-08-14 15:00:00 TS 16.3422 -82.0501 main 178 138 P_____________ AL031931 16.3422 -82.0501 TS 50 0 14 274
1931223N14299 1931 25 NA CS NOT_NAMED 1931-08-14 18:00:00 TS 16.4000 -82.8000 50 hurdat_atl main 138 114 O_____________ hurdat_atl AL031931 16.4000 -82.8000 TS 50 0 14 276
1931223N14299 1931 25 NA CS NOT_NAMED 1931-08-14 21:00:00 TS 16.4922 -83.5500 main 114 89 P_____________ AL031931 16.4922 -83.5500 TS 50 0 15 278
1931223N14299 1931 25 NA CS NOT_NAMED 1931-08-15 00:00:00 TS 16.6000 -84.3000 50 hurdat_atl main 89 79 O_____________ hurdat_atl AL031931 16.6000 -84.3000 TS 50 0 15 278
1931223N14299 1931 25 NA CS NOT_NAMED 1931-08-15 03:00:00 TS 16.7000 -85.0725 main 89 89 P_____________ AL031931 16.7000 -85.0725 TS 47 0 15 278
1931223N14299 1931 25 NA CS NOT_NAMED 1931-08-15 06:00:00 TS 16.8000 -85.8000 45 hurdat_atl main 100 100 O_____________ hurdat_atl AL031931 16.8000 -85.8000 TS 45 0 13 279
1931223N14299 1931 25 NA CS NOT_NAMED 1931-08-15 09:00:00 TS 16.8997 -86.4376 main 123 123 P_____________ AL031931 16.8997 -86.4376 TS 45 0 12 280
1931223N14299 1931 25 NA CS NOT_NAMED 1931-08-15 12:00:00 TS 17.0000 -87.0000 45 hurdat_atl main 127 75 O_____________ hurdat_atl AL031931 17.0000 -87.0000 TS 45 0 11 281
1931223N14299 1931 25 NA CS NOT_NAMED 1931-08-15 15:00:00 TS 17.0999 -87.5300 main 75 30 P_____________ AL031931 17.0999 -87.5300 TS 45 0 10 282
1931223N14299 1931 25 NA CS NOT_NAMED 1931-08-15 18:00:00 TS 17.2000 -88.0000 45 hurdat_atl main 30 0 O_____________ hurdat_atl AL031931 17.2000 -88.0000 TS 45 0 9 283
1931223N14299 1931 25 NA NA NOT_NAMED 1931-08-15 21:00:00 TS 17.2999 -88.4300 main 0 0 P_____________ AL031931 17.2999 -88.4300 TS 42 0 8 285
1931223N14299 1931 25 NA NA NOT_NAMED 1931-08-16 00:00:00 TS 17.4000 -88.8000 40 hurdat_atl main 0 0 O_____________ hurdat_atl AL031931 17.4000 -88.8000 TS 40 0 7 287
1931223N14299 1931 25 NA NA NOT_NAMED 1931-08-16 03:00:00 TS 17.4999 -89.1151 main 0 0 P_____________ AL031931 17.4999 -89.1151 TS 37 0 6 289
1931223N14299 1931 25 NA NA NOT_NAMED 1931-08-16 06:00:00 TS 17.6000 -89.4000 35 hurdat_atl main 0 0 O_____________ hurdat_atl AL031931 17.6000 -89.4000 TS 35 0 6 290
1931223N14299 1931 25 NA NA NOT_NAMED 1931-08-16 09:00:00 TS 17.7000 -89.7000 main 0 0 P_____________ AL031931 17.7000 -89.7000 TS 35 0 6 289
1931223N14299 1931 25 NA NA NOT_NAMED 1931-08-16 12:00:00 TS 17.8000 -90.0000 35 hurdat_atl main 0 0 O_____________ hurdat_atl AL031931 17.8000 -90.0000 TS 35 0 6 289
1931223N14299 1931 25 NA NA NOT_NAMED 1931-08-16 15:00:00 TS 17.8925 -90.3001 main 0 0 P_____________ AL031931 17.8925 -90.3001 TS 32 -1 6 289
1931223N14299 1931 25 NA NA NOT_NAMED 1931-08-16 18:00:00 TS 18.0000 -90.6000 30 hurdat_atl main 0 0 O_____________ hurdat_atl AL031931 18.0000 -90.6000 TD 30 -1 6 294
1931223N14299 1931 25 NA NA NOT_NAMED 1931-08-16 21:00:00 TS 18.1424 -90.8925 main 0 0 P_____________ AL031931 18.1424 -90.8925 TD 30 -1 6 298
1931223N14299 1931 25 NA NA NOT_NAMED 1931-08-17 00:00:00 TS 18.3000 -91.2000 30 hurdat_atl main 0 0 O_____________ hurdat_atl AL031931 18.3000 -91.2000 TD 30 -1 7 297
1931223N14299 1931 25 NA GM NOT_NAMED 1931-08-17 03:00:00 TS 18.4500 -91.5425 main 0 0 P_____________ AL031931 18.4500 -91.5425 TD 32 -1 7 294
1931223N14299 1931 25 NA GM NOT_NAMED 1931-08-17 06:00:00 TS 18.6000 -91.9000 35 hurdat_atl main 0 0 O_____________ hurdat_atl AL031931 18.6000 -91.9000 TS 35 0 7 295
1931223N14299 1931 25 NA GM NOT_NAMED 1931-08-17 09:00:00 TS 18.7574 -92.2500 main 22 22 P_____________ AL031931 18.7574 -92.2500 TS 42 0 7 294
1931223N14299 1931 25 NA GM NOT_NAMED 1931-08-17 12:00:00 TS 18.9000 -92.6000 50 hurdat_atl main 33 33 O_____________ hurdat_atl AL031931 18.9000 -92.6000 TS 50 0 7 291
1931223N14299 1931 25 NA GM NOT_NAMED 1931-08-17 15:00:00 TS 19.0073 -92.9351 main 49 49 P_____________ AL031931 19.0073 -92.9351 TS 50 0 7 287
1931223N14299 1931 25 NA GM NOT_NAMED 1931-08-17 18:00:00 TS 19.1000 -93.3000 50 hurdat_atl main 84 84 O_____________ hurdat_atl AL031931 19.1000 -93.3000 TS 50 0 8 284
1931223N14299 1931 25 NA GM NOT_NAMED 1931-08-17 21:00:00 TS 19.1999 -93.7276 main 100 100 P_____________ AL031931 19.1999 -93.7276 TS 50 0 9 283
1931223N14299 1931 25 NA GM NOT_NAMED 1931-08-18 00:00:00 TS 19.3000 -94.2000 50 hurdat_atl main 114 94 O_____________ hurdat_atl AL031931 19.3000 -94.2000 TS 50 0 9 283
1931223N14299 1931 25 NA GM NOT_NAMED 1931-08-18 03:00:00 TS 19.4074 -94.6850 main 94 84 P_____________ AL031931 19.4074 -94.6850 TS 50 0 10 282
1931223N14299 1931 25 NA GM NOT_NAMED 1931-08-18 06:00:00 TS 19.5000 -95.2000 50 hurdat_atl main 89 53 O_____________ hurdat_atl AL031931 19.5000 -95.2000 TS 50 0 10 278
1931223N14299 1931 25 NA GM NOT_NAMED 1931-08-18 09:00:00 TS 19.5575 -95.7576 main 54 10 P_____________ AL031931 19.5575 -95.7576 TS 50 0 10 276
1931223N14299 1931 25 NA GM NOT_NAMED 1931-08-18 12:00:00 TS 19.6000 -96.3000 50 hurdat_atl main 10 0 O_____________ hurdat_atl AL031931 19.6000 -96.3000 TS 50 0 10 276
1931223N14299 1931 25 NA NA NOT_NAMED 1931-08-18 15:00:00 TS 19.6498 -96.7725 main 0 0 P_____________ AL031931 19.6498 -96.7725 TS 42 0 9 277
1931223N14299 1931 25 NA NA NOT_NAMED 1931-08-18 18:00:00 TS 19.7000 -97.2000 35 hurdat_atl main 0 0 O_____________ hurdat_atl AL031931 19.7000 -97.2000 TS 35 0 8 277
1931223N14299 1931 25 NA NA NOT_NAMED 1931-08-18 21:00:00 TS 19.7502 -97.6049 main 0 0 P_____________ AL031931 19.7502 -97.6049 TS 30 -1 8 278
1931223N14299 1931 25 NA NA NOT_NAMED 1931-08-19 00:00:00 TS 19.8000 -98.0000 25 hurdat_atl main 0 O_____________ hurdat_atl AL031931 19.8000 -98.0000 TD 25 -1 8 278

IBTrACS Databaseについて

本データベースは、米国NOAAが公開する1842年以降の世界の熱帯低気圧のベストトラックデータアーカイブInternational Best Track Archive for Climate Stewardship (IBTrACS)を、ウェブで閲覧しやすい形式に変換したものです。

最終更新日:2021-12-08